Time;durP1;ratioP1;P1;durP2;ratioP2;P2;SDS_P1;SDS_P2;PMS_P1;PMS_P2;Temp;Humidity;BMP_temperature;BMP_pressure;BME280_temperature;BME280_humidity;BME280_pressure;Samples;Min_cycle;Max_cycle;Signal;HPM_P1;HPM_P2
2023/04/04 00:01:07;;;;;;;11.93;3.08;;;8.10;99.90;;;;;;5132216;27;20114;-75
2023/04/04 00:03:32;;;;;;;12.00;3.05;;;8.10;99.90;;;;;;5132659;27;20023;-74
2023/04/04 00:05:58;;;;;;;8.23;2.88;;;8.20;99.90;;;;;;5132092;27;20068;-74
2023/04/04 00:08:24;;;;;;;7.03;2.50;;;8.20;99.90;;;;;;5131854;27;20031;-74
2023/04/04 00:10:55;;;;;;;8.02;2.60;;;8.20;99.90;;;;;;5131413;27;20055;-75
2023/04/04 00:13:21;;;;;;;7.20;2.60;;;8.20;99.90;;;;;;5114029;27;20092;-75
2023/04/04 00:15:47;;;;;;;8.93;2.20;;;8.20;99.90;;;;;;5131851;27;20455;-75
2023/04/04 00:18:12;;;;;;;9.93;2.92;;;8.20;99.90;;;;;;5113675;27;20368;-75
2023/04/04 00:20:38;;;;;;;8.23;2.63;;;8.30;99.90;;;;;;5132380;27;20023;-75
2023/04/04 00:23:04;;;;;;;8.63;2.83;;;8.20;99.90;;;;;;5131704;27;20051;-74
2023/04/04 00:25:30;;;;;;;7.45;2.67;;;8.20;99.90;;;;;;5132435;27;20511;-74
2023/04/04 00:27:59;;;;;;;7.13;2.40;;;8.20;99.90;;;;;;5113236;27;20051;-75
2023/04/04 00:30:25;;;;;;;9.40;3.08;;;8.20;99.90;;;;;;5132083;27;20019;-74
2023/04/04 00:32:51;;;;;;;7.65;2.85;;;8.20;99.90;;;;;;5131438;27;20144;-75
2023/04/04 00:35:16;;;;;;;7.03;2.75;;;8.20;99.90;;;;;;5131813;27;20049;-74
2023/04/04 00:37:42;;;;;;;6.45;2.53;;;8.20;99.90;;;;;;5131894;27;20442;-74
2023/04/04 00:40:08;;;;;;;6.63;2.55;;;8.20;99.90;;;;;;5131743;27;20023;-74
2023/04/04 00:42:34;;;;;;;5.07;2.30;;;8.20;99.90;;;;;;5131807;27;20039;-74
2023/04/04 00:45:00;;;;;;;8.98;2.10;;;8.20;99.90;;;;;;5131282;27;20083;-74
2023/04/04 00:47:29;;;;;;;7.30;2.50;;;8.20;99.90;;;;;;5132280;27;20141;-74
2023/04/04 00:49:55;;;;;;;10.50;2.65;;;8.10;99.90;;;;;;5131117;27;20452;-75
2023/04/04 00:52:21;;;;;;;7.57;2.63;;;8.10;99.90;;;;;;5131402;27;20110;-74
2023/04/04 00:54:47;;;;;;;10.70;3.17;;;8.10;99.90;;;;;;5131035;27;20455;-78
2023/04/04 00:57:13;;;;;;;10.00;2.72;;;8.10;99.90;;;;;;5131425;27;20038;-74
2023/04/04 00:59:38;;;;;;;9.15;2.85;;;8.10;99.90;;;;;;5131464;27;20019;-74
2023/04/04 01:02:05;;;;;;;8.23;2.47;;;8.10;99.90;;;;;;5131471;27;20352;-74
2023/04/04 01:04:30;;;;;;;7.03;2.40;;;8.10;99.90;;;;;;5132114;27;20023;-75
2023/04/04 01:06:56;;;;;;;7.75;2.45;;;8.10;99.90;;;;;;5131617;27;20481;-75
2023/04/04 01:09:22;;;;;;;8.40;3.08;;;8.10;99.90;;;;;;5132423;27;20465;-75
2023/04/04 01:11:49;;;;;;;7.28;2.65;;;8.10;99.90;;;;;;5131769;27;20071;-78
2023/04/04 01:14:15;;;;;;;10.23;2.55;;;8.10;99.90;;;;;;5131509;27;20064;-75
2023/04/04 01:16:41;;;;;;;5.35;2.45;;;8.10;99.90;;;;;;5113164;27;20395;-75
2023/04/04 01:19:13;;;;;;;9.05;2.13;;;8.10;99.90;;;;;;5131162;27;20031;-75
2023/04/04 01:21:39;;;;;;;8.23;2.65;;;8.10;99.90;;;;;;5112969;28;20171;-75
2023/04/04 01:24:07;;;;;;;7.38;2.40;;;8.10;99.90;;;;;;5130541;27;20485;-75
2023/04/04 01:26:32;;;;;;;7.32;2.30;;;8.10;99.90;;;;;;5131539;28;20367;-74
2023/04/04 01:28:58;;;;;;;5.45;2.10;;;8.10;99.90;;;;;;5130894;28;20098;-75
2023/04/04 01:31:42;;;;;;;5.47;2.42;;;8.10;99.90;;;;;;5130960;28;20034;-75
2023/04/04 01:34:14;;;;;;;8.80;4.43;;;8.10;99.90;;;;;;5130788;28;20054;-75
2023/04/04 01:36:53;;;;;;;19.30;10.20;;;8.10;99.90;;;;;;5131619;28;20051;-74
2023/04/04 01:39:26;;;;;;;12.82;7.65;;;8.10;99.90;;;;;;5131221;28;20376;-74
2023/04/04 01:41:55;;;;;;;15.05;5.88;;;8.10;99.90;;;;;;5130830;28;20023;-75
2023/04/04 01:44:21;;;;;;;16.17;5.50;;;8.20;99.90;;;;;;5110587;28;20024;-74
2023/04/04 01:46:55;;;;;;;7.57;3.33;;;8.20;99.90;;;;;;5110648;28;20380;-74
2023/04/04 01:49:22;;;;;;;6.85;2.50;;;8.20;99.90;;;;;;5110486;28;20430;-74
2023/04/04 01:51:51;;;;;;;8.38;3.05;;;8.20;99.90;;;;;;5110671;28;20020;-74
2023/04/04 01:54:18;;;;;;;8.90;2.50;;;8.30;99.90;;;;;;5110461;28;20105;-74
2023/04/04 01:56:45;;;;;;;8.48;2.15;;;8.20;99.90;;;;;;5110658;28;20019;-73
2023/04/04 01:59:11;;;;;;;7.45;2.50;;;8.30;99.90;;;;;;5110032;28;20138;-74
2023/04/04 02:01:37;;;;;;;7.13;2.30;;;8.30;99.90;;;;;;5092051;28;20055;-74
2023/04/04 02:04:03;;;;;;;7.90;2.55;;;8.30;99.90;;;;;;5110293;28;20047;-73
2023/04/04 02:06:29;;;;;;;6.82;2.53;;;8.30;99.90;;;;;;5110218;28;20064;-73
2023/04/04 02:08:55;;;;;;;8.52;2.40;;;8.40;99.90;;;;;;5110381;28;20095;-75
2023/04/04 02:11:21;;;;;;;7.03;2.30;;;8.40;99.90;;;;;;5110685;28;20027;-74
2023/04/04 02:13:50;;;;;;;7.07;2.72;;;8.40;99.90;;;;;;5110383;28;20032;-74
2023/04/04 02:16:17;;;;;;;6.03;2.28;;;8.40;99.90;;;;;;5091750;28;20035;-74
2023/04/04 02:18:42;;;;;;;4.85;2.40;;;8.40;99.90;;;;;;5110621;28;20023;-73
2023/04/04 02:21:08;;;;;;;10.10;2.63;;;8.40;99.90;;;;;;5110069;28;20126;-74
2023/04/04 02:23:34;;;;;;;6.85;2.95;;;8.50;99.90;;;;;;5110675;28;20082;-73
2023/04/04 02:25:59;;;;;;;8.90;2.70;;;8.50;99.90;;;;;;5110157;28;20027;-74
2023/04/04 02:28:27;;;;;;;6.15;2.47;;;8.50;99.90;;;;;;5110630;28;20063;-74
2023/04/04 02:30:53;;;;;;;6.60;2.80;;;8.50;99.90;;;;;;5092208;28;20031;-78
2023/04/04 02:33:18;;;;;;;6.50;2.20;;;8.50;99.90;;;;;;5112683;28;20428;-74
2023/04/04 02:35:44;;;;;;;9.05;2.15;;;8.60;99.90;;;;;;5114149;28;20023;-74
2023/04/04 02:38:10;;;;;;;6.20;2.22;;;8.60;99.90;;;;;;5113824;28;20027;-74
2023/04/04 02:40:38;;;;;;;6.82;2.38;;;8.60;99.90;;;;;;5113756;28;20446;-74
2023/04/04 02:43:04;;;;;;;8.98;2.40;;;8.60;99.90;;;;;;5113364;28;20020;-74
2023/04/04 02:45:30;;;;;;;5.85;2.28;;;8.60;99.90;;;;;;5113857;28;20121;-74
2023/04/04 02:47:55;;;;;;;6.13;2.40;;;8.60;99.90;;;;;;5095093;28;20467;-78
2023/04/04 02:50:21;;;;;;;5.22;2.22;;;8.60;99.90;;;;;;5113860;28;20317;-73
2023/04/04 02:52:47;;;;;;;6.60;2.30;;;8.50;99.90;;;;;;5113387;28;20071;-74
2023/04/04 02:55:12;;;;;;;5.15;2.05;;;8.50;99.90;;;;;;5112791;28;20034;-73
2023/04/04 02:57:39;;;;;;;4.28;2.35;;;8.50;99.90;;;;;;5095193;28;20027;-73
2023/04/04 03:00:05;;;;;;;4.70;2.88;;;8.50;99.90;;;;;;5113050;28;20024;-74
2023/04/04 03:02:31;;;;;;;7.55;2.60;;;8.40;99.90;;;;;;5113580;28;20168;-73
2023/04/04 03:04:57;;;;;;;6.43;2.30;;;8.40;99.90;;;;;;5112751;28;20560;-78
2023/04/04 03:07:22;;;;;;;8.13;3.00;;;8.30;99.90;;;;;;5113500;28;20302;-74
2023/04/04 03:09:48;;;;;;;5.75;2.22;;;8.20;99.90;;;;;;5112990;28;20048;-74
2023/04/04 03:12:14;;;;;;;6.90;2.40;;;8.10;99.90;;;;;;5112624;28;20176;-74
2023/04/04 03:14:40;;;;;;;5.00;3.10;;;8.10;99.90;;;;;;5112919;28;20107;-74
2023/04/04 03:17:08;;;;;;;8.27;2.70;;;8.00;99.90;;;;;;5112714;28;20030;-74
2023/04/04 03:19:34;;;;;;;5.88;2.63;;;8.00;99.90;;;;;;5113114;28;20038;-74
2023/04/04 03:22:00;;;;;;;9.23;2.80;;;7.90;99.90;;;;;;5093744;28;20028;-75
2023/04/04 03:24:27;;;;;;;7.18;3.00;;;7.90;99.90;;;;;;5113003;28;20047;-74
2023/04/04 03:26:53;;;;;;;5.72;3.13;;;7.80;99.90;;;;;;5113019;28;20138;-75
2023/04/04 03:29:19;;;;;;;7.35;2.58;;;7.80;99.90;;;;;;5112438;28;20138;-75
2023/04/04 03:31:45;;;;;;;9.10;2.60;;;7.70;99.90;;;;;;5112758;28;20460;-74
2023/04/04 03:34:11;;;;;;;6.70;2.53;;;7.60;99.90;;;;;;5112130;28;20038;-74
2023/04/04 03:36:37;;;;;;;8.52;2.78;;;7.50;99.90;;;;;;5112644;28;20027;-74
2023/04/04 03:39:02;;;;;;;7.35;2.83;;;7.50;99.90;;;;;;5112154;28;20080;-74
2023/04/04 03:41:28;;;;;;;5.75;2.88;;;7.50;99.90;;;;;;5112563;28;20098;-74
2023/04/04 03:43:54;;;;;;;4.75;2.70;;;7.50;99.90;;;;;;5112273;28;20094;-74
2023/04/04 03:46:20;;;;;;;7.57;3.20;;;7.40;99.90;;;;;;5111597;28;20144;-73
2023/04/04 03:48:46;;;;;;;6.20;2.58;;;7.40;99.90;;;;;;5112599;28;20478;-73
2023/04/04 03:51:11;;;;;;;9.13;2.70;;;7.30;99.90;;;;;;5111814;28;20110;-74
2023/04/04 03:53:37;;;;;;;9.30;3.28;;;7.30;99.90;;;;;;5112452;28;20360;-73
2023/04/04 03:56:03;;;;;;;7.53;2.88;;;7.30;99.90;;;;;;5111563;28;20042;-74
2023/04/04 03:58:29;;;;;;;6.47;2.85;;;7.20;99.90;;;;;;5112403;28;20204;-73
2023/04/04 04:00:55;;;;;;;6.00;3.00;;;7.20;99.90;;;;;;5112264;28;20410;-74
2023/04/04 04:03:21;;;;;;;8.40;3.33;;;7.20;99.90;;;;;;5111794;28;20038;-74
2023/04/04 04:05:46;;;;;;;4.45;2.50;;;7.10;99.90;;;;;;5094049;28;20143;-74
2023/04/04 04:08:12;;;;;;;6.80;3.65;;;7.10;99.90;;;;;;5112020;28;20034;-74
2023/04/04 04:10:38;;;;;;;9.70;2.90;;;7.10;99.90;;;;;;5112339;28;20031;-75
2023/04/04 04:13:04;;;;;;;5.63;2.80;;;7.10;99.90;;;;;;5111983;28;20028;-75
2023/04/04 04:15:30;;;;;;;8.18;2.80;;;7.10;99.90;;;;;;5112550;28;20027;-74
2023/04/04 04:17:55;;;;;;;7.28;2.83;;;7.00;99.90;;;;;;5113851;27;20475;-75
2023/04/04 04:20:21;;;;;;;7.32;2.78;;;7.10;99.90;;;;;;5113381;27;20079;-74
2023/04/04 04:22:48;;;;;;;7.88;2.63;;;7.10;99.90;;;;;;5132624;27;20084;-75
2023/04/04 04:25:15;;;;;;;3.08;2.70;;;7.10;99.90;;;;;;5131913;27;20035;-74
2023/04/04 04:27:41;;;;;;;7.35;3.00;;;7.10;99.90;;;;;;5132434;27;20114;-74
2023/04/04 04:30:08;;;;;;;7.57;2.83;;;7.10;99.90;;;;;;5131947;27;20097;-74
2023/04/04 04:32:34;;;;;;;8.20;3.10;;;7.20;99.90;;;;;;5132236;27;20072;-73
2023/04/04 04:34:59;;;;;;;8.02;3.22;;;7.20;99.90;;;;;;5132158;27;20027;-74
2023/04/04 04:37:25;;;;;;;5.78;2.75;;;7.20;99.90;;;;;;5131838;27;20080;-75
2023/04/04 04:39:51;;;;;;;7.38;2.90;;;7.30;99.90;;;;;;5131944;27;20083;-73
2023/04/04 04:42:18;;;;;;;8.88;3.00;;;7.30;99.90;;;;;;5131584;27;20037;-73
2023/04/04 04:44:44;;;;;;;8.70;3.20;;;7.30;99.90;;;;;;5132216;27;20019;-74
2023/04/04 04:47:10;;;;;;;6.63;3.47;;;7.30;99.90;;;;;;5131529;27;20055;-74
2023/04/04 04:49:35;;;;;;;7.35;2.83;;;7.30;99.90;;;;;;5113422;27;20023;-74
2023/04/04 04:52:01;;;;;;;7.25;3.00;;;7.40;99.90;;;;;;5131654;27;20106;-74
2023/04/04 04:54:27;;;;;;;10.85;3.47;;;7.40;99.90;;;;;;5131317;27;20023;-74
2023/04/04 04:56:53;;;;;;;7.95;3.20;;;7.50;99.90;;;;;;5131624;27;20023;-75
2023/04/04 04:59:19;;;;;;;6.53;2.78;;;7.50;99.90;;;;;;5131439;27;20067;-75
2023/04/04 05:01:45;;;;;;;9.38;3.00;;;7.60;99.90;;;;;;5132017;27;20023;-75
2023/04/04 05:04:11;;;;;;;8.70;3.22;;;7.60;99.90;;;;;;5112692;27;20110;-74
2023/04/04 05:06:39;;;;;;;7.43;3.20;;;7.60;99.90;;;;;;5131366;27;20459;-74
2023/04/04 05:09:05;;;;;;;5.40;2.88;;;7.60;99.90;;;;;;5131469;27;20376;-77
2023/04/04 05:11:31;;;;;;;5.95;3.55;;;7.60;99.90;;;;;;5131433;27;20042;-74
2023/04/04 05:13:57;;;;;;;6.47;3.17;;;7.60;99.90;;;;;;5131373;27;20455;-75
2023/04/04 05:16:23;;;;;;;5.80;3.17;;;7.60;99.90;;;;;;5131037;27;20388;-75
2023/04/04 05:18:48;;;;;;;7.22;3.20;;;7.60;99.90;;;;;;5131639;27;20024;-74
2023/04/04 05:21:15;;;;;;;7.38;3.35;;;7.60;99.90;;;;;;5112439;27;20023;-75
2023/04/04 05:23:41;;;;;;;12.18;3.20;;;7.60;99.90;;;;;;5131000;27;20497;-74
2023/04/04 05:26:06;;;;;;;9.70;3.40;;;7.60;99.90;;;;;;5112728;28;20364;-79
2023/04/04 05:28:33;;;;;;;7.75;3.03;;;7.60;99.90;;;;;;5131273;28;20020;-75
2023/04/04 05:30:59;;;;;;;9.32;3.33;;;7.60;99.90;;;;;;5131405;28;20404;-74
2023/04/04 05:33:24;;;;;;;9.30;3.63;;;7.60;99.90;;;;;;5130449;28;20087;-75
2023/04/04 05:35:50;;;;;;;10.38;3.85;;;7.60;99.90;;;;;;5130915;28;20110;-74
2023/04/04 05:38:16;;;;;;;5.30;3.30;;;7.60;99.90;;;;;;5130871;28;20080;-75
2023/04/04 05:40:41;;;;;;;11.32;3.92;;;7.50;99.90;;;;;;5112939;28;20023;-74
2023/04/04 05:43:08;;;;;;;8.60;4.65;;;7.50;99.90;;;;;;5130873;28;20487;-79
2023/04/04 05:45:34;;;;;;;7.43;4.38;;;7.50;99.90;;;;;;5131025;28;20024;-75
2023/04/04 05:47:59;;;;;;;8.60;4.10;;;7.60;99.90;;;;;;5131138;28;20076;-74
2023/04/04 05:50:25;;;;;;;7.93;3.72;;;7.60;99.90;;;;;;5130671;28;20058;-75
2023/04/04 05:52:54;;;;;;;11.50;3.85;;;7.60;99.90;;;;;;5112524;28;20476;-75
2023/04/04 05:55:20;;;;;;;6.53;3.60;;;7.50;99.90;;;;;;5130416;28;20027;-74
2023/04/04 05:57:48;;;;;;;9.43;3.70;;;7.50;99.90;;;;;;5130573;28;20452;-74
2023/04/04 06:00:14;;;;;;;10.05;4.35;;;7.50;99.90;;;;;;5130369;28;20034;-74
2023/04/04 06:02:40;;;;;;;6.03;3.70;;;7.50;99.90;;;;;;5131037;28;20119;-74
2023/04/04 06:05:07;;;;;;;8.80;3.90;;;7.50;99.90;;;;;;5130755;28;20140;-74
2023/04/04 06:07:33;;;;;;;10.88;4.03;;;7.50;99.90;;;;;;5131573;27;20030;-75
2023/04/04 06:09:58;;;;;;;10.82;3.78;;;7.50;99.90;;;;;;5135166;27;20031;-75
2023/04/04 06:12:24;;;;;;;11.55;4.18;;;7.50;99.90;;;;;;5134281;27;20055;-75
2023/04/04 06:14:50;;;;;;;9.00;4.03;;;7.50;99.90;;;;;;5135145;27;20038;-73
2023/04/04 06:17:16;;;;;;;8.27;4.60;;;7.60;99.90;;;;;;5115636;27;20027;-75
2023/04/04 06:19:41;;;;;;;9.20;4.20;;;7.60;99.90;;;;;;5116504;27;20459;-75
2023/04/04 06:22:07;;;;;;;13.48;4.57;;;7.60;99.90;;;;;;5135145;27;20045;-75
2023/04/04 06:24:33;;;;;;;11.00;5.60;;;7.70;99.90;;;;;;5134627;27;20042;-75
2023/04/04 06:26:59;;;;;;;8.70;4.68;;;7.70;99.90;;;;;;5134684;27;20029;-75
2023/04/04 06:29:25;;;;;;;12.00;5.88;;;7.70;99.90;;;;;;5134069;27;20082;-74
2023/04/04 06:31:51;;;;;;;9.80;5.55;;;7.70;99.90;;;;;;5134272;27;20154;-74
2023/04/04 06:34:16;;;;;;;14.00;5.82;;;7.70;99.90;;;;;;5133687;27;20031;-75
2023/04/04 06:36:42;;;;;;;8.73;5.50;;;7.80;99.90;;;;;;5134308;27;20087;-75
2023/04/04 06:39:08;;;;;;;14.30;7.10;;;7.80;99.90;;;;;;5115483;27;20464;-74
2023/04/04 06:41:33;;;;;;;13.68;6.90;;;7.90;99.90;;;;;;5133569;27;20167;-75
2023/04/04 06:43:59;;;;;;;12.15;6.60;;;7.90;99.90;;;;;;5134237;27;20031;-75
2023/04/04 06:46:26;;;;;;;11.27;6.22;;;7.90;99.90;;;;;;5114843;27;20038;-74
2023/04/04 06:48:51;;;;;;;16.73;6.70;;;8.00;99.90;;;;;;5134135;27;20103;-74
2023/04/04 06:51:17;;;;;;;14.10;5.70;;;8.00;99.90;;;;;;5114635;27;20061;-74
2023/04/04 06:53:43;;;;;;;15.00;6.70;;;8.10;99.90;;;;;;5133975;27;20027;-74
2023/04/04 06:56:09;;;;;;;9.90;4.97;;;8.20;99.90;;;;;;5133938;27;20024;-74
2023/04/04 06:58:37;;;;;;;11.88;6.70;;;8.20;99.90;;;;;;5133678;27;20129;-74
2023/04/04 07:01:03;;;;;;;12.98;5.63;;;8.30;99.90;;;;;;5134097;27;20023;-75
2023/04/04 07:03:29;;;;;;;7.00;4.90;;;8.30;99.90;;;;;;5133773;27;20023;-75
2023/04/04 07:05:56;;;;;;;12.77;5.10;;;8.40;99.90;;;;;;5133448;27;20031;-74
2023/04/04 07:08:21;;;;;;;13.50;4.90;;;8.40;99.90;;;;;;5133147;27;20468;-75
2023/04/04 07:10:47;;;;;;;12.13;4.13;;;8.50;99.90;;;;;;5115081;27;20110;-74
2023/04/04 07:13:13;;;;;;;6.63;4.32;;;8.60;99.90;;;;;;5133374;27;20066;-74
2023/04/04 07:15:39;;;;;;;7.70;4.32;;;8.70;99.90;;;;;;5133145;27;20051;-74
2023/04/04 07:18:05;;;;;;;12.20;4.68;;;8.70;99.90;;;;;;5133137;27;20074;-74
2023/04/04 07:20:31;;;;;;;13.98;5.88;;;8.80;99.90;;;;;;5114517;27;20114;-74
2023/04/04 07:22:56;;;;;;;10.00;4.95;;;8.80;99.90;;;;;;5133213;27;20051;-75
2023/04/04 07:25:22;;;;;;;7.75;4.53;;;8.90;99.90;;;;;;5114322;27;20050;-75
2023/04/04 07:27:48;;;;;;;8.52;4.75;;;8.90;99.90;;;;;;5133303;27;20015;-75
2023/04/04 07:30:14;;;;;;;11.07;4.60;;;9.00;99.90;;;;;;5133236;27;20030;-75
2023/04/04 07:32:40;;;;;;;13.05;4.95;;;9.00;99.90;;;;;;5132468;27;20034;-75
2023/04/04 07:35:06;;;;;;;8.50;4.15;;;9.10;99.90;;;;;;5133402;27;20027;-76
2023/04/04 07:37:35;;;;;;;12.68;4.32;;;9.10;99.90;;;;;;5132624;27;20379;-75
2023/04/04 07:40:01;;;;;;;12.15;4.85;;;9.20;99.90;;;;;;5133325;27;20035;-76
2023/04/04 07:42:29;;;;;;;10.05;3.60;;;9.30;99.90;;;;;;5132543;27;20487;-76
2023/04/04 07:44:55;;;;;;;6.35;4.10;;;9.40;99.90;;;;;;5133076;27;20049;-75
2023/04/04 07:47:21;;;;;;;15.27;4.53;;;9.40;99.90;;;;;;5132148;27;20027;-76
2023/04/04 07:49:47;;;;;;;13.90;3.85;;;9.50;99.90;;;;;;5132908;27;20076;-76
2023/04/04 07:52:12;;;;;;;7.97;3.70;;;9.50;99.90;;;;;;5132863;27;20023;-76
2023/04/04 07:54:39;;;;;;;10.70;3.90;;;9.50;99.90;;;;;;5131885;27;20146;-76
2023/04/04 07:57:05;;;;;;;7.95;3.33;;;9.60;99.90;;;;;;5132302;27;20110;-75
2023/04/04 07:59:34;;;;;;;8.18;3.55;;;9.60;99.90;;;;;;5131788;27;20019;-75
2023/04/04 08:02:00;;;;;;;8.57;3.53;;;9.60;99.90;;;;;;5132484;27;20026;-75
2023/04/04 08:04:26;;;;;;;8.85;3.38;;;9.70;99.90;;;;;;5131296;27;20067;-76
2023/04/04 08:06:52;;;;;;;9.93;3.72;;;9.70;99.90;;;;;;5132026;27;20115;-75
2023/04/04 08:09:17;;;;;;;7.97;3.92;;;9.70;99.90;;;;;;5131428;27;20118;-78
2023/04/04 08:11:44;;;;;;;8.77;4.00;;;9.80;99.90;;;;;;5131698;27;20019;-78
2023/04/04 08:14:12;;;;;;;7.30;4.18;;;9.80;99.90;;;;;;5131955;27;20026;-75
2023/04/04 08:16:38;;;;;;;9.95;4.05;;;9.80;99.90;;;;;;5130797;27;20023;-75
2023/04/04 08:19:05;;;;;;;10.45;4.50;;;9.80;99.90;;;;;;5131923;27;20030;-77
2023/04/04 08:21:31;;;;;;;6.70;3.70;;;9.90;99.90;;;;;;5131128;27;20329;-76
2023/04/04 08:23:57;;;;;;;9.45;3.75;;;9.90;99.90;;;;;;5113028;27;20111;-76
2023/04/04 08:26:23;;;;;;;8.00;3.40;;;10.00;99.90;;;;;;5131188;27;20029;-76
2023/04/04 08:28:49;;;;;;;7.18;3.92;;;10.00;99.90;;;;;;5132011;27;20396;-76
2023/04/04 08:31:14;;;;;;;8.30;3.85;;;10.00;99.90;;;;;;5130568;27;20121;-76
2023/04/04 08:33:40;;;;;;;6.53;3.20;;;10.10;99.90;;;;;;5131310;27;20083;-75
2023/04/04 08:36:06;;;;;;;7.30;3.53;;;10.10;99.90;;;;;;5112974;27;20035;-75
2023/04/04 08:38:32;;;;;;;7.55;3.83;;;10.20;99.90;;;;;;5131206;27;20015;-77
2023/04/04 08:40:58;;;;;;;4.88;3.40;;;10.20;99.90;;;;;;5131660;27;20347;-77
2023/04/04 08:43:24;;;;;;;11.73;3.80;;;10.30;99.90;;;;;;5130959;27;20035;-76
2023/04/04 08:45:52;;;;;;;8.20;3.47;;;10.40;99.90;;;;;;5131304;27;20041;-76
2023/04/04 08:48:20;;;;;;;12.32;3.92;;;10.40;99.90;;;;;;5131399;27;20023;-77
2023/04/04 08:50:47;;;;;;;6.80;3.50;;;10.50;99.90;;;;;;5131464;27;20023;-74
2023/04/04 08:53:13;;;;;;;8.20;3.10;;;10.50;99.90;;;;;;5131175;27;20322;-74
2023/04/04 08:55:39;;;;;;;5.82;3.20;;;10.50;99.90;;;;;;5130793;27;20627;-75
2023/04/04 08:58:05;;;;;;;12.13;3.45;;;10.60;99.90;;;;;;5131439;27;20027;-75
2023/04/04 09:00:31;;;;;;;8.20;3.10;;;10.50;99.90;;;;;;5130681;27;20064;-75
2023/04/04 09:03:12;;;;;;;6.97;3.00;;;10.50;99.90;;;;;;5130938;27;20042;-75
2023/04/04 09:05:38;;;;;;;7.18;2.53;;;10.50;99.90;;;;;;5130356;27;20222;-75
2023/04/04 09:08:06;;;;;;;6.38;2.97;;;10.60;99.90;;;;;;5130816;27;20444;-75
2023/04/04 09:10:32;;;;;;;8.20;2.90;;;10.60;99.90;;;;;;5131096;27;20027;-75
2023/04/04 09:12:58;;;;;;;6.05;2.55;;;10.60;99.90;;;;;;5131249;27;20034;-76
2023/04/04 09:15:24;;;;;;;6.88;2.33;;;10.70;99.90;;;;;;5131000;27;20048;-76
2023/04/04 09:17:50;;;;;;;8.05;2.63;;;10.70;99.90;;;;;;5131486;27;20034;-76
2023/04/04 09:20:39;;;;;;;10.45;3.83;;;10.70;99.90;;;;;;5131513;27;20035;-76
2023/04/04 09:23:06;;;;;;;11.02;2.55;;;10.90;99.90;;;;;;5131002;27;20199;-76
2023/04/04 09:25:33;;;;;;;10.00;2.92;;;10.90;99.90;;;;;;5112458;28;20023;-76
2023/04/04 09:28:01;;;;;;;6.88;2.35;;;11.00;99.90;;;;;;5096212;28;20439;-74
2023/04/04 09:30:27;;;;;;;9.82;3.33;;;11.10;99.90;;;;;;5131844;28;20100;-74
2023/04/04 09:32:56;;;;;;;8.90;2.85;;;11.20;99.90;;;;;;5132125;28;20023;-74
2023/04/04 09:35:22;;;;;;;8.23;2.95;;;11.30;99.90;;;;;;5114214;28;20030;-78
2023/04/04 09:37:48;;;;;;;8.20;2.90;;;11.30;99.90;;;;;;5131999;28;20023;-76
2023/04/04 09:40:14;;;;;;;10.10;3.55;;;11.30;99.90;;;;;;5132061;28;20042;-76
2023/04/04 09:42:41;;;;;;;7.70;2.70;;;11.30;99.90;;;;;;5135112;27;20080;-76
2023/04/04 09:45:08;;;;;;;4.88;2.63;;;11.40;99.90;;;;;;5135599;27;20554;-76
2023/04/04 09:47:41;;;;;;;6.30;2.53;;;11.40;99.90;;;;;;5116056;27;20031;-76
2023/04/04 09:50:07;;;;;;;6.50;2.97;;;11.40;99.90;;;;;;5135112;27;20034;-75
2023/04/04 09:52:34;;;;;;;6.50;2.72;;;11.40;99.90;;;;;;5134485;27;20130;-76
2023/04/04 09:55:02;;;;;;;8.10;2.80;;;11.40;99.90;;;;;;5134841;27;20381;-75
2023/04/04 09:57:30;;;;;;;11.07;3.13;;;11.40;99.90;;;;;;5134607;27;20027;-76
2023/04/04 10:00:07;;;;;;;9.38;3.20;;;11.40;99.90;;;;;;5135007;27;20027;-75
2023/04/04 10:02:34;;;;;;;15.52;4.10;;;11.40;99.90;;;;;;5134353;27;20027;-76
2023/04/04 10:05:02;;;;;;;9.77;3.08;;;11.50;99.90;;;;;;5116713;27;20072;-76
2023/04/04 10:07:28;;;;;;;9.27;3.08;;;11.50;99.90;;;;;;5134269;27;20023;-76
2023/04/04 10:09:56;;;;;;;8.15;3.05;;;11.60;99.90;;;;;;5134492;27;20437;-76
2023/04/04 10:12:23;;;;;;;13.55;3.60;;;11.60;99.90;;;;;;5134314;27;20062;-76
2023/04/04 10:14:55;;;;;;;8.82;3.33;;;11.60;99.90;;;;;;5134988;27;20329;-75
2023/04/04 10:17:22;;;;;;;8.98;3.42;;;11.70;99.90;;;;;;5134711;27;20484;-75
2023/04/04 10:19:49;;;;;;;9.88;3.58;;;11.80;99.90;;;;;;5115401;27;20054;-76
2023/04/04 10:22:15;;;;;;;9.10;3.50;;;11.80;99.90;;;;;;5134277;27;20050;-76
2023/04/04 10:24:41;;;;;;;8.63;3.42;;;11.70;99.90;;;;;;5135041;27;20030;-76
2023/04/04 10:27:07;;;;;;;5.72;2.80;;;11.60;99.90;;;;;;5135606;27;20027;-75
2023/04/04 10:29:33;;;;;;;9.48;3.55;;;11.70;99.90;;;;;;5134690;27;20027;-76
2023/04/04 10:32:04;;;;;;;8.73;3.20;;;11.70;99.90;;;;;;5135087;27;20029;-75
2023/04/04 10:34:39;;;;;;;9.55;3.85;;;11.80;99.90;;;;;;5134900;27;20027;-76
2023/04/04 10:37:14;;;;;;;6.60;3.70;;;12.00;99.90;;;;;;5134887;27;20380;-75
2023/04/04 10:39:52;;;;;;;7.18;3.38;;;12.10;99.90;;;;;;5134662;27;20023;-75
2023/04/04 10:42:18;;;;;;;10.40;3.67;;;12.10;99.90;;;;;;5135211;27;20027;-76
2023/04/04 10:44:46;;;;;;;8.65;3.05;;;12.30;99.90;;;;;;5134696;27;20034;-76
2023/04/04 10:47:16;;;;;;;10.68;3.17;;;12.40;99.90;;;;;;5134545;27;20035;-76
2023/04/04 10:49:45;;;;;;;8.57;3.13;;;12.40;99.90;;;;;;5134388;27;20485;-76
2023/04/04 10:52:16;;;;;;;7.32;2.50;;;12.40;99.90;;;;;;5134890;27;20442;-76
2023/04/04 10:54:42;;;;;;;9.30;2.78;;;12.50;99.90;;;;;;5133712;27;20432;-76
2023/04/04 10:57:09;;;;;;;12.18;3.38;;;12.60;99.90;;;;;;5135106;27;20022;-76
2023/04/04 10:59:55;;;;;;;9.77;2.95;;;12.70;99.90;;;;;;5115416;27;20031;-76
2023/04/04 11:02:53;;;;;;;7.75;2.45;;;12.70;99.90;;;;;;5134801;27;20027;-75
2023/04/04 11:05:40;;;;;;;12.48;3.90;;;12.70;99.90;;;;;;5134004;27;20023;-76
2023/04/04 11:08:09;;;;;;;12.85;5.70;;;12.60;99.90;;;;;;5133848;27;20444;-76
2023/04/04 11:10:36;;;;;;;7.80;2.38;;;12.60;99.90;;;;;;5133124;27;20114;-76
2023/04/04 11:13:21;;;;;;;16.45;4.40;;;12.60;99.90;;;;;;5133530;27;20104;-75
2023/04/04 11:16:03;;;;;;;13.18;3.22;;;12.60;99.90;;;;;;5133230;27;20146;-75
2023/04/04 11:18:41;;;;;;;11.90;3.38;;;12.60;99.90;;;;;;5133251;27;20063;-80
2023/04/04 11:21:30;;;;;;;7.90;2.78;;;12.70;99.90;;;;;;5133450;27;20045;-76
2023/04/04 11:24:13;;;;;;;17.52;3.13;;;12.60;99.90;;;;;;5132834;27;20051;-76
2023/04/04 11:26:41;;;;;;;;;;;12.60;99.90;;;;;;5133372;27;20034;-76
2023/04/04 11:29:07;;;;;;;12.20;2.30;;;12.70;99.90;;;;;;5133802;27;19915;-74
2023/04/04 11:31:36;;;;;;;11.30;2.85;;;12.70;99.90;;;;;;5133035;27;20026;-75
2023/04/04 11:34:06;;;;;;;5.97;2.30;;;12.80;99.90;;;;;;5133176;27;20047;-75
2023/04/04 11:36:39;;;;;;;13.75;2.80;;;12.90;99.90;;;;;;5132611;27;20031;-75
2023/04/04 11:39:25;;;;;;;14.43;2.83;;;12.80;99.90;;;;;;5133528;27;20015;-75
2023/04/04 11:41:57;;;;;;;10.57;3.20;;;12.80;99.90;;;;;;5132786;27;20087;-75
2023/04/04 11:44:29;;;;;;;6.97;2.13;;;12.90;99.90;;;;;;5132660;27;20027;-76
2023/04/04 11:47:03;;;;;;;8.18;2.35;;;12.90;99.90;;;;;;5114103;27;20283;-77
2023/04/04 11:49:31;;;;;;;7.63;3.20;;;12.90;99.90;;;;;;5132994;27;20062;-76
2023/04/04 11:51:57;;;;;;;6.80;2.00;;;13.00;99.90;;;;;;5132756;27;20035;-76
2023/04/04 11:54:23;;;;;;;13.07;2.92;;;13.10;99.90;;;;;;5133057;27;20023;-76
2023/04/04 11:56:49;;;;;;;11.93;3.33;;;13.10;99.90;;;;;;5132200;27;20075;-75
2023/04/04 11:59:19;;;;;;;11.45;2.33;;;13.20;99.90;;;;;;5132597;27;20031;-75
2023/04/04 12:01:45;;;;;;;19.75;3.22;;;13.30;99.90;;;;;;5132301;27;20030;-75
2023/04/04 12:04:11;;;;;;;13.43;2.33;;;13.40;99.90;;;;;;5132930;27;20427;-75
2023/04/04 12:06:37;;;;;;;10.20;2.80;;;13.60;99.90;;;;;;5131534;27;20051;-77
2023/04/04 12:09:04;;;;;;;13.93;2.75;;;13.80;99.90;;;;;;5132720;27;20027;-76
2023/04/04 12:11:33;;;;;;;10.88;2.65;;;13.90;99.90;;;;;;5132427;27;20121;-76
2023/04/04 12:14:01;;;;;;;8.57;2.60;;;14.10;99.90;;;;;;5132566;27;20038;-76
2023/04/04 12:16:27;;;;;;;11.82;2.50;;;14.20;99.90;;;;;;5132424;27;20047;-75
2023/04/04 12:18:55;;;;;;;8.15;2.00;;;14.20;99.90;;;;;;5131590;27;20710;-76
2023/04/04 12:21:21;;;;;;;9.38;2.75;;;14.40;99.90;;;;;;5132576;27;20037;-76
2023/04/04 12:23:49;;;;;;;7.30;2.47;;;14.40;99.90;;;;;;5131736;27;20387;-76
2023/04/04 12:26:16;;;;;;;10.32;2.25;;;14.40;99.90;;;;;;5132987;27;20095;-76
2023/04/04 12:28:44;;;;;;;12.93;3.17;;;14.40;99.90;;;;;;5131975;27;20084;-76
2023/04/04 12:31:11;;;;;;;10.38;2.45;;;14.50;99.90;;;;;;5132607;27;20023;-76
2023/04/04 12:33:40;;;;;;;5.45;1.80;;;14.60;99.90;;;;;;5131855;27;20030;-77
2023/04/04 12:36:06;;;;;;;8.20;2.05;;;14.60;99.90;;;;;;5132195;27;20051;-77
2023/04/04 12:38:32;;;;;;;10.10;2.13;;;14.50;99.90;;;;;;5114251;27;20409;-76
2023/04/04 12:40:58;;;;;;;6.25;2.03;;;14.50;99.90;;;;;;5131872;27;20072;-76
2023/04/04 12:43:32;;;;;;;7.97;2.53;;;14.50;99.90;;;;;;5132494;27;20031;-75
2023/04/04 12:45:58;;;;;;;6.00;2.35;;;14.50;99.90;;;;;;5131307;27;20103;-77
2023/04/04 12:48:28;;;;;;;6.13;1.90;;;14.50;99.90;;;;;;5131903;27;20413;-76
2023/04/04 12:50:59;;;;;;;11.55;2.50;;;14.50;99.90;;;;;;5131074;27;20669;-76